Time;durP1;ratioP1;P1;durP2;ratioP2;P2;SDS_P1;SDS_P2;PMS_P1;PMS_P2;Temp;Humidity;BMP_temperature;BMP_pressure;BME280_temperature;BME280_humidity;BME280_pressure;Samples;Min_cycle;Max_cycle;Signal;HPM_P1;HPM_P2
2022/04/17 00:00:27;;;;;;;11.07;6.25;;;;;;;;;;5055671;28;20477;-83
2022/04/17 00:02:53;;;;;;;14.32;6.97;;;;;;;;;;5075294;28;20037;-82
2022/04/17 00:05:19;;;;;;;9.73;5.90;;;;;;;;;;5055493;28;20020;-82
2022/04/17 00:07:47;;;;;;;10.48;5.90;;;;;;;;;;5062688;28;20057;-82
2022/04/17 00:10:13;;;;;;;10.93;5.70;;;;;;;;;;5063715;28;20046;-83
2022/04/17 00:12:40;;;;;;;11.02;5.72;;;;;;;;;;5071878;28;20032;-84
2022/04/17 00:15:10;;;;;;;11.13;5.57;;;;;;;;;;5038445;28;20078;-83
2022/04/17 00:17:43;;;;;;;10.82;6.10;;;;;;;;;;5061572;28;20033;-85
2022/04/17 00:20:10;;;;;;;11.35;5.80;;;;;;;;;;5066978;28;20092;-83
2022/04/17 00:22:36;;;;;;;11.73;5.85;;;;;;;;;;5064843;28;20028;-84
2022/04/17 00:25:02;;;;;;;9.13;5.70;;;;;;;;;;5063820;28;20061;-84
2022/04/17 00:27:28;;;;;;;11.98;6.32;;;;;;;;;;5065083;28;20092;-82
2022/04/17 00:29:54;;;;;;;9.80;6.00;;;;;;;;;;5066001;28;20033;-83
2022/04/17 00:32:20;;;;;;;8.80;5.60;;;;;;;;;;5070191;28;20547;-82
2022/04/17 00:34:46;;;;;;;11.75;6.97;;;;;;;;;;5071410;28;20033;-82
2022/04/17 00:37:12;;;;;;;11.82;6.32;;;;;;;;;;5047740;28;20035;-83
2022/04/17 00:39:40;;;;;;;9.90;5.30;;;;;;;;;;5045826;28;20028;-83
2022/04/17 00:42:07;;;;;;;10.07;5.38;;;;;;;;;;5068424;28;20104;-81
2022/04/17 00:44:33;;;;;;;10.23;5.65;;;;;;;;;;5052848;28;20032;-81
2022/04/17 00:47:00;;;;;;;9.57;5.35;;;;;;;;;;5054814;28;20059;-82
2022/04/17 00:49:26;;;;;;;8.38;5.60;;;;;;;;;;5067055;28;20079;-79
2022/04/17 00:52:00;;;;;;;9.38;5.13;;;;;;;;;;5062004;28;20025;-83
2022/04/17 00:54:27;;;;;;;12.18;5.10;;;;;;;;;;5066858;28;20144;-80
2022/04/17 00:56:53;;;;;;;11.07;5.95;;;;;;;;;;5082745;28;20075;-80
2022/04/17 00:59:22;;;;;;;8.40;5.70;;;;;;;;;;5063512;28;20051;-80
2022/04/17 01:01:49;;;;;;;8.55;5.90;;;;;;;;;;5074231;28;20036;-82
2022/04/17 01:04:20;;;;;;;9.38;5.60;;;;;;;;;;5063365;28;20025;-82
2022/04/17 01:06:48;;;;;;;8.77;5.45;;;;;;;;;;5040791;28;20051;-82
2022/04/17 01:09:15;;;;;;;7.53;5.10;;;;;;;;;;5037902;28;20037;-80
2022/04/17 01:11:41;;;;;;;9.77;5.65;;;;;;;;;;5045454;28;20029;-81
2022/04/17 01:14:08;;;;;;;13.57;6.00;;;;;;;;;;5035021;28;20044;-82
2022/04/17 01:16:36;;;;;;;10.55;5.88;;;;;;;;;;5053811;28;20029;-81
2022/04/17 01:19:11;;;;;;;10.23;5.95;;;;;;;;;;5063251;28;20048;-80
2022/04/17 01:21:38;;;;;;;9.10;5.63;;;;;;;;;;5076823;28;20041;-85
2022/04/17 01:27:01;;;;;;;11.32;5.97;;;;;;;;;;5065397;28;20087;-85
2022/04/17 01:29:31;;;;;;;10.45;6.10;;;;;;;;;;5065154;28;20029;-80
2022/04/17 01:31:58;;;;;;;14.10;6.68;;;;;;;;;;5059596;28;20032;-81
2022/04/17 01:34:24;;;;;;;10.68;6.43;;;;;;;;;;5063602;28;20021;-83
2022/04/17 01:36:52;;;;;;;11.05;6.20;;;;;;;;;;5080579;28;20056;-80
2022/04/17 01:39:19;;;;;;;9.73;6.28;;;;;;;;;;5070719;28;20123;-82
2022/04/17 01:41:45;;;;;;;13.05;7.43;;;;;;;;;;5060730;28;20051;-81
2022/04/17 01:44:12;;;;;;;12.07;6.75;;;;;;;;;;5049576;28;20044;-82
2022/04/17 01:46:38;;;;;;;13.38;7.68;;;;;;;;;;5066048;28;20028;-83
2022/04/17 01:49:04;;;;;;;14.15;7.28;;;;;;;;;;5059149;28;20123;-79
2022/04/17 01:51:37;;;;;;;11.52;7.22;;;;;;;;;;5075655;28;20039;-82
2022/04/17 01:54:06;;;;;;;13.00;7.40;;;;;;;;;;5082842;28;20509;-82
2022/04/17 01:56:34;;;;;;;14.43;7.45;;;;;;;;;;5062574;28;20053;-80
2022/04/17 01:59:01;;;;;;;11.45;7.22;;;;;;;;;;5052692;28;20040;-81
2022/04/17 02:01:27;;;;;;;10.88;7.75;;;;;;;;;;5050687;28;20033;-80
2022/04/17 02:03:54;;;;;;;13.48;7.47;;;;;;;;;;5064372;28;20025;-82
2022/04/17 02:06:20;;;;;;;11.02;7.00;;;;;;;;;;5046393;28;20033;-80
2022/04/17 02:08:46;;;;;;;13.27;8.57;;;;;;;;;;5042451;28;20033;-83
2022/04/17 02:11:12;;;;;;;14.88;7.97;;;;;;;;;;5042974;28;20040;-82
2022/04/17 02:13:38;;;;;;;14.20;8.45;;;;;;;;;;5038115;28;20186;-81
2022/04/17 02:16:05;;;;;;;14.60;9.88;;;;;;;;;;5028488;28;20082;-80
2022/04/17 02:18:31;;;;;;;18.73;10.32;;;;;;;;;;5053290;28;20049;-81
2022/04/17 02:20:57;;;;;;;16.70;10.25;;;;;;;;;;5035607;28;20029;-82
2022/04/17 02:23:42;;;;;;;13.90;9.90;;;;;;;;;;5064582;28;20022;-81
2022/04/17 02:26:09;;;;;;;17.98;9.70;;;;;;;;;;5056019;28;20009;-81
2022/04/17 02:28:36;;;;;;;18.85;11.68;;;;;;;;;;5045824;28;20054;-81
2022/04/17 02:31:05;;;;;;;16.17;10.07;;;;;;;;;;5059799;28;20049;-84
2022/04/17 02:33:53;;;;;;;17.10;9.63;;;;;;;;;;5051450;28;20099;-81
2022/04/17 02:39:22;;;;;;;22.00;13.63;;;;;;;;;;5065265;28;21830;-81
2022/04/17 02:41:48;;;;;;;20.65;12.98;;;;;;;;;;5017276;28;20044;-82
2022/04/17 02:44:14;;;;;;;25.58;14.32;;;;;;;;;;5031898;28;20033;-81
2022/04/17 02:49:25;;;;;;;18.73;10.38;;;;;;;;;;5050623;28;20064;-81
2022/04/17 02:51:51;;;;;;;16.38;9.25;;;;;;;;;;5056797;28;20017;-80
2022/04/17 02:54:19;;;;;;;16.73;10.18;;;;;;;;;;5054395;28;20107;-81
2022/04/17 02:56:46;;;;;;;15.77;9.52;;;;;;;;;;5047919;28;20072;-82
2022/04/17 02:59:12;;;;;;;16.23;10.35;;;;;;;;;;5067389;28;20043;-82
2022/04/17 03:07:09;;;;;;;19.77;11.18;;;;;;;;;;5055865;28;20044;-82
2022/04/17 03:09:35;;;;;;;15.20;9.60;;;;;;;;;;5050337;28;20120;-81
2022/04/17 03:12:01;;;;;;;19.50;9.80;;;;;;;;;;5054908;28;20033;-82
2022/04/17 03:14:27;;;;;;;18.23;10.63;;;;;;;;;;5053257;28;20037;-82
2022/04/17 03:16:53;;;;;;;16.75;9.75;;;;;;;;;;5036267;28;20047;-81
2022/04/17 03:19:19;;;;;;;15.70;9.75;;;;;;;;;;5038147;28;20474;-83
2022/04/17 03:22:04;;;;;;;16.50;10.10;;;;;;;;;;5062726;28;20037;-83
2022/04/17 03:24:35;;;;;;;17.55;10.48;;;;;;;;;;5067164;28;20036;-82
2022/04/17 03:27:01;;;;;;;13.15;9.18;;;;;;;;;;5086209;28;20029;-82
2022/04/17 03:29:29;;;;;;;16.50;9.55;;;;;;;;;;5066476;28;20032;-82
2022/04/17 03:31:55;;;;;;;15.73;9.90;;;;;;;;;;5052187;28;20025;-82
2022/04/17 03:34:21;;;;;;;18.42;9.15;;;;;;;;;;5072534;28;20033;-82
2022/04/17 03:36:48;;;;;;;16.67;9.40;;;;;;;;;;5063509;28;20073;-82
2022/04/17 03:39:14;;;;;;;16.35;9.35;;;;;;;;;;5064179;28;20095;-82
2022/04/17 03:41:40;;;;;;;15.38;9.55;;;;;;;;;;5067835;28;20055;-82
2022/04/17 03:44:06;;;;;;;19.30;9.73;;;;;;;;;;5073691;28;20473;-81
2022/04/17 03:46:33;;;;;;;17.25;9.55;;;;;;;;;;5074274;28;20028;-81
2022/04/17 03:48:59;;;;;;;15.68;9.82;;;;;;;;;;5072732;28;20029;-84
2022/04/17 03:51:25;;;;;;;13.38;9.50;;;;;;;;;;5050683;28;20131;-83
2022/04/17 03:53:51;;;;;;;17.17;9.15;;;;;;;;;;5077618;28;20012;-82
2022/04/17 03:56:17;;;;;;;16.65;9.60;;;;;;;;;;5065432;28;20398;-82
2022/04/17 03:58:43;;;;;;;16.80;9.10;;;;;;;;;;5088535;28;20036;-82
2022/04/17 04:01:28;;;;;;;15.93;9.45;;;;;;;;;;5070571;28;20025;-82
2022/04/17 04:03:55;;;;;;;15.65;9.43;;;;;;;;;;5065006;28;20021;-81
2022/04/17 04:06:21;;;;;;;15.77;9.55;;;;;;;;;;5059022;28;20082;-81
2022/04/17 04:08:50;;;;;;;15.30;9.38;;;;;;;;;;5074241;28;20482;-80
2022/04/17 04:11:18;;;;;;;15.20;9.70;;;;;;;;;;5042171;28;20033;-81
2022/04/17 04:13:44;;;;;;;17.40;9.82;;;;;;;;;;5054762;28;20036;-82
2022/04/17 04:16:11;;;;;;;15.50;9.07;;;;;;;;;;5056686;28;20021;-82
2022/04/17 04:18:37;;;;;;;16.85;8.82;;;;;;;;;;5046678;28;20045;-82
2022/04/17 04:21:03;;;;;;;17.77;9.23;;;;;;;;;;5074085;28;20017;-83
2022/04/17 04:23:33;;;;;;;17.42;8.70;;;;;;;;;;5064047;28;20112;-82
2022/04/17 04:25:59;;;;;;;16.58;9.27;;;;;;;;;;5067389;28;20085;-82
2022/04/17 04:28:44;;;;;;;18.67;9.25;;;;;;;;;;5084448;28;20098;-82
2022/04/17 04:31:11;;;;;;;14.05;9.40;;;;;;;;;;5064344;28;20095;-81
2022/04/17 04:33:38;;;;;;;16.83;9.25;;;;;;;;;;5074084;28;20547;-81
2022/04/17 04:36:04;;;;;;;16.58;9.80;;;;;;;;;;5060847;28;20494;-82
2022/04/17 04:38:31;;;;;;;15.95;9.77;;;;;;;;;;5063537;28;20033;-83
2022/04/17 04:40:59;;;;;;;17.77;9.38;;;;;;;;;;5054643;28;20029;-83
2022/04/17 04:43:25;;;;;;;16.67;9.88;;;;;;;;;;5063465;28;20450;-83
2022/04/17 04:46:06;;;;;;;21.23;9.85;;;;;;;;;;5058319;28;20044;-82
2022/04/17 04:51:21;;;;;;;14.88;9.35;;;;;;;;;;5064761;28;20067;-82
2022/04/17 04:53:47;;;;;;;14.55;9.15;;;;;;;;;;5067035;28;20005;-80
2022/04/17 04:56:15;;;;;;;15.15;9.18;;;;;;;;;;5067892;28;20036;-81
2022/04/17 04:58:41;;;;;;;19.30;9.77;;;;;;;;;;5068913;28;20041;-82
2022/04/17 05:01:16;;;;;;;14.93;9.95;;;;;;;;;;5072078;28;20054;-80
2022/04/17 05:03:42;;;;;;;16.10;9.13;;;;;;;;;;5078897;28;20032;-80
2022/04/17 05:06:08;;;;;;;14.93;9.65;;;;;;;;;;5062264;28;20032;-81
2022/04/17 05:08:35;;;;;;;18.88;9.35;;;;;;;;;;5058420;28;20116;-82
2022/04/17 05:11:01;;;;;;;14.75;8.70;;;;;;;;;;5066888;28;20052;-80
2022/04/17 05:13:28;;;;;;;16.17;10.02;;;;;;;;;;5052310;28;20033;-80
2022/04/17 05:15:54;;;;;;;15.70;9.95;;;;;;;;;;5067501;28;20170;-80
2022/04/17 05:18:20;;;;;;;14.10;8.93;;;;;;;;;;5052291;28;20028;-82
2022/04/17 05:20:47;;;;;;;14.30;8.80;;;;;;;;;;5066848;28;20036;-80
2022/04/17 05:23:25;;;;;;;16.77;9.50;;;;;;;;;;5059877;28;20043;-81
2022/04/17 05:25:52;;;;;;;12.73;8.07;;;;;;;;;;5075232;28;20043;-81
2022/04/17 05:28:18;;;;;;;14.85;8.82;;;;;;;;;;5045489;28;20044;-82
2022/04/17 05:30:45;;;;;;;16.80;8.98;;;;;;;;;;5073744;28;20041;-82
2022/04/17 05:33:11;;;;;;;16.00;9.18;;;;;;;;;;5061101;28;20013;-82
2022/04/17 05:35:37;;;;;;;13.00;8.90;;;;;;;;;;5065501;28;20097;-82
2022/04/17 05:38:04;;;;;;;14.63;8.48;;;;;;;;;;5074122;28;20421;-82
2022/04/17 05:40:35;;;;;;;16.15;8.48;;;;;;;;;;5080712;28;20020;-81
2022/04/17 05:43:01;;;;;;;15.35;9.23;;;;;;;;;;5066601;28;20034;-81
2022/04/17 05:45:27;;;;;;;16.55;8.43;;;;;;;;;;5073282;28;20498;-82
2022/04/17 05:47:53;;;;;;;13.15;8.52;;;;;;;;;;5060903;28;20107;-82
2022/04/17 05:50:20;;;;;;;13.80;8.45;;;;;;;;;;5056780;28;20029;-81
2022/04/17 05:52:46;;;;;;;12.35;8.05;;;;;;;;;;5054998;28;20032;-82
2022/04/17 05:55:12;;;;;;;14.77;9.25;;;;;;;;;;5066216;28;20500;-81
2022/04/17 05:57:38;;;;;;;16.88;8.40;;;;;;;;;;5071244;28;20056;-82
2022/04/17 06:00:08;;;;;;;14.48;8.38;;;;;;;;;;5068122;28;20025;-81
2022/04/17 06:02:35;;;;;;;13.85;8.52;;;;;;;;;;5059935;28;20043;-82
2022/04/17 06:05:03;;;;;;;13.52;8.93;;;;;;;;;;5054558;28;20035;-78
2022/04/17 06:07:29;;;;;;;13.15;8.52;;;;;;;;;;5058893;28;20221;-81
2022/04/17 06:09:55;;;;;;;12.55;8.10;;;;;;;;;;5049037;28;20041;-80
2022/04/17 06:12:22;;;;;;;12.15;8.40;;;;;;;;;;5079530;28;20028;-81
2022/04/17 06:14:48;;;;;;;10.57;7.53;;;;;;;;;;5076971;28;20076;-78
2022/04/17 06:17:14;;;;;;;12.10;7.93;;;;;;;;;;5063835;28;20032;-80
2022/04/17 06:19:40;;;;;;;11.02;7.72;;;;;;;;;;5067586;28;20028;-81
2022/04/17 06:22:07;;;;;;;14.25;8.32;;;;;;;;;;5084369;28;20056;-80
2022/04/17 06:24:33;;;;;;;12.13;7.85;;;;;;;;;;5073622;28;20048;-81
2022/04/17 06:26:59;;;;;;;13.32;8.50;;;;;;;;;;5067801;28;20033;-80
2022/04/17 06:29:25;;;;;;;11.40;6.95;;;;;;;;;;5058557;28;20740;-82
2022/04/17 06:31:51;;;;;;;10.40;7.22;;;;;;;;;;5054603;28;20379;-79
2022/04/17 06:34:17;;;;;;;10.50;6.82;;;;;;;;;;5051364;28;20025;-79
2022/04/17 06:36:43;;;;;;;9.10;6.80;;;;;;;;;;5052138;28;20560;-79
2022/04/17 06:39:10;;;;;;;11.73;7.70;;;;;;;;;;5050412;28;20024;-82
2022/04/17 06:41:36;;;;;;;12.10;7.88;;;;;;;;;;5062542;28;20024;-84
2022/04/17 06:44:02;;;;;;;10.85;7.47;;;;;;;;;;5043466;28;20113;-82
2022/04/17 06:46:28;;;;;;;11.63;7.38;;;;;;;;;;5067127;28;20028;-82
2022/04/17 06:48:54;;;;;;;10.48;7.10;;;;;;;;;;5056070;28;20406;-82
2022/04/17 06:51:25;;;;;;;16.25;7.25;;;;;;;;;;5061317;28;20040;-83
2022/04/17 06:53:52;;;;;;;11.57;7.72;;;;;;;;;;5059825;28;20036;-81
2022/04/17 06:56:18;;;;;;;12.65;6.78;;;;;;;;;;5063547;28;20094;-84
2022/04/17 06:58:45;;;;;;;11.05;7.10;;;;;;;;;;5077023;28;20112;-85
2022/04/17 07:01:11;;;;;;;11.95;7.60;;;;;;;;;;5054745;28;20080;-82
2022/04/17 07:03:37;;;;;;;11.60;6.82;;;;;;;;;;5065220;28;20091;-82
2022/04/17 07:06:03;;;;;;;14.38;7.53;;;;;;;;;;5070160;28;20056;-83
2022/04/17 07:08:29;;;;;;;11.05;6.70;;;;;;;;;;5071060;28;20021;-84
2022/04/17 07:10:55;;;;;;;11.07;7.25;;;;;;;;;;5046952;28;20390;-81
2022/04/17 07:13:21;;;;;;;11.43;7.03;;;;;;;;;;5067314;28;20094;-82
2022/04/17 07:15:48;;;;;;;13.07;7.18;;;;;;;;;;5067108;28;20024;-81
2022/04/17 07:18:14;;;;;;;13.30;6.93;;;;;;;;;;5059649;28;20450;-81
2022/04/17 07:20:40;;;;;;;9.90;6.70;;;;;;;;;;5063953;28;20032;-80
2022/04/17 07:23:07;;;;;;;13.00;7.43;;;;;;;;;;5043657;28;20020;-80
2022/04/17 07:25:34;;;;;;;10.23;6.53;;;;;;;;;;5060804;28;20033;-82
2022/04/17 07:28:00;;;;;;;12.32;6.50;;;;;;;;;;5056799;28;20128;-83
2022/04/17 07:30:30;;;;;;;9.50;6.95;;;;;;;;;;5058875;28;20574;-81
2022/04/17 07:32:57;;;;;;;9.65;7.32;;;;;;;;;;5061352;28;20561;-79
2022/04/17 07:35:24;;;;;;;9.32;7.05;;;;;;;;;;5058742;28;20021;-80
2022/04/17 07:38:10;;;;;;;10.45;6.63;;;;;;;;;;5060942;28;20037;-79
2022/04/17 07:40:39;;;;;;;9.93;6.43;;;;;;;;;;5070047;28;20033;-82
2022/04/17 07:43:05;;;;;;;10.85;6.40;;;;;;;;;;5074390;28;20047;-83
2022/04/17 07:45:52;;;;;;;12.82;7.15;;;;;;;;;;5054113;28;20071;-82
2022/04/17 07:48:19;;;;;;;9.32;6.40;;;;;;;;;;5066670;28;20040;-82
2022/04/17 07:50:45;;;;;;;12.48;6.72;;;;;;;;;;5049474;28;20056;-84
2022/04/17 07:53:11;;;;;;;13.02;7.10;;;;;;;;;;5077049;28;20013;-83
2022/04/17 07:55:37;;;;;;;8.25;6.18;;;;;;;;;;5077583;28;20525;-83
2022/04/17 08:00:32;;;;;;;11.23;7.38;;;;;;;;;;5074522;28;20051;-84
2022/04/17 08:03:20;;;;;;;11.32;6.55;;;;;;;;;;5066426;28;20032;-82
2022/04/17 08:05:46;;;;;;;11.10;6.93;;;;;;;;;;5065370;28;20037;-85
2022/04/17 08:08:12;;;;;;;12.10;6.80;;;;;;;;;;5067151;28;20532;-84
2022/04/17 08:10:39;;;;;;;11.40;6.40;;;;;;;;;;5063694;28;20041;-83
2022/04/17 08:13:06;;;;;;;13.85;6.50;;;;;;;;;;5063021;28;20021;-84
2022/04/17 08:15:32;;;;;;;10.23;6.72;;;;;;;;;;5065492;28;20085;-84
2022/04/17 08:17:58;;;;;;;12.02;6.55;;;;;;;;;;5055623;28;20084;-83
2022/04/17 08:20:24;;;;;;;8.90;6.32;;;;;;;;;;5040364;28;20051;-84
2022/04/17 08:22:50;;;;;;;10.27;6.75;;;;;;;;;;5062176;28;20029;-82
2022/04/17 08:25:16;;;;;;;11.70;6.10;;;;;;;;;;5064879;28;20540;-84
2022/04/17 08:27:49;;;;;;;11.27;6.55;;;;;;;;;;5062399;28;20028;-82
2022/04/17 08:30:25;;;;;;;10.82;7.15;;;;;;;;;;5062209;28;20033;-82
2022/04/17 08:32:51;;;;;;;8.75;6.57;;;;;;;;;;5065500;28;20028;-84
2022/04/17 08:35:19;;;;;;;9.68;6.22;;;;;;;;;;5068199;28;20033;-83
2022/04/17 08:37:45;;;;;;;9.40;6.50;;;;;;;;;;5063874;28;20029;-83
2022/04/17 08:40:12;;;;;;;8.93;6.22;;;;;;;;;;5068144;28;20051;-83
2022/04/17 08:42:39;;;;;;;8.52;5.90;;;;;;;;;;5049886;28;20124;-82
2022/04/17 08:45:05;;;;;;;8.00;5.65;;;;;;;;;;5070490;28;20013;-84
2022/04/17 08:47:32;;;;;;;9.55;6.32;;;;;;;;;;5075604;28;20081;-82
2022/04/17 08:50:00;;;;;;;7.75;5.80;;;;;;;;;;5073867;28;20826;-85
2022/04/17 08:52:29;;;;;;;9.70;6.22;;;;;;;;;;5056375;28;20071;-83
2022/04/17 08:54:56;;;;;;;8.40;6.45;;;;;;;;;;5071368;28;20028;-82
2022/04/17 08:57:22;;;;;;;9.07;5.65;;;;;;;;;;5071177;28;20105;-85
2022/04/17 08:59:48;;;;;;;7.35;5.70;;;;;;;;;;5073933;28;20068;-84
2022/04/17 09:02:16;;;;;;;9.07;5.43;;;;;;;;;;5072015;28;20044;-83
2022/04/17 09:04:42;;;;;;;8.23;5.95;;;;;;;;;;5067735;28;20029;-83
2022/04/17 09:07:10;;;;;;;9.30;5.28;;;;;;;;;;5068642;28;20113;-84
2022/04/17 09:09:39;;;;;;;8.50;5.85;;;;;;;;;;5065748;28;20032;-83
2022/04/17 09:12:06;;;;;;;7.43;5.57;;;;;;;;;;5059463;28;20036;-83
2022/04/17 09:14:36;;;;;;;11.93;5.28;;;;;;;;;;5066483;28;20048;-83
2022/04/17 09:17:02;;;;;;;;;;;;;;;;;;5063157;28;20024;-83
2022/04/17 09:19:29;;;;;;;7.00;5.50;;;;;;;;;;5056582;28;19917;-84
2022/04/17 09:21:56;;;;;;;13.88;5.88;;;;;;;;;;5039327;28;20086;-80
2022/04/17 09:24:24;;;;;;;8.07;5.60;;;;;;;;;;5064709;28;20101;-82
2022/04/17 09:26:53;;;;;;;9.38;5.75;;;;;;;;;;5067973;28;20044;-81
2022/04/17 09:29:19;;;;;;;9.75;5.55;;;;;;;;;;5063455;28;20037;-82
2022/04/17 09:31:45;;;;;;;14.45;5.80;;;;;;;;;;5055272;28;20025;-80
2022/04/17 09:34:12;;;;;;;10.73;6.40;;;;;;;;;;5061245;28;20108;-83
2022/04/17 09:36:38;;;;;;;7.95;5.72;;;;;;;;;;5070028;28;20032;-81
2022/04/17 09:39:14;;;;;;;12.40;6.25;;;;;;;;;;5066887;28;20032;-81
2022/04/17 09:41:54;;;;;;;9.18;6.03;;;;;;;;;;5071392;28;20029;-82
2022/04/17 09:44:36;;;;;;;9.30;5.72;;;;;;;;;;5067329;28;20033;-82
2022/04/17 09:47:03;;;;;;;8.15;5.60;;;;;;;;;;5070166;28;20033;-82
2022/04/17 09:49:29;;;;;;;8.48;5.70;;;;;;;;;;5069378;28;20048;-82
2022/04/17 09:52:08;;;;;;;10.02;5.75;;;;;;;;;;5071765;28;20036;-82
2022/04/17 09:54:34;;;;;;;7.47;5.43;;;;;;;;;;5068375;28;20044;-81
2022/04/17 09:57:00;;;;;;;7.90;5.57;;;;;;;;;;5064941;28;20453;-81
2022/04/17 09:59:27;;;;;;;6.95;5.35;;;;;;;;;;5069701;28;20104;-83
2022/04/17 10:01:55;;;;;;;18.35;5.70;;;;;;;;;;5068299;28;20032;-83
2022/04/17 10:04:22;;;;;;;10.88;4.25;;;;;;;;;;5075170;28;20068;-82
2022/04/17 10:06:48;;;;;;;8.00;4.05;;;;;;;;;;5065601;28;20102;-81
2022/04/17 10:09:14;;;;;;;4.40;3.15;;;;;;;;;;5071851;28;20040;-82
2022/04/17 10:11:41;;;;;;;7.47;4.18;;;;;;;;;;5076239;28;20032;-84
2022/04/17 10:14:08;;;;;;;6.82;4.40;;;;;;;;;;5081774;28;20085;-82
2022/04/17 10:16:35;;;;;;;7.03;4.72;;;;;;;;;;5075875;28;20040;-84
2022/04/17 10:19:05;;;;;;;6.22;5.03;;;;;;;;;;5081533;28;20028;-82
2022/04/17 10:21:35;;;;;;;6.47;4.80;;;;;;;;;;5087487;28;20039;-82
2022/04/17 10:24:02;;;;;;;6.28;4.60;;;;;;;;;;5078439;28;20028;-85
2022/04/17 10:26:32;;;;;;;8.35;5.18;;;;;;;;;;5082192;28;20091;-81
2022/04/17 10:29:00;;;;;;;6.63;4.72;;;;;;;;;;5083131;28;20017;-79
2022/04/17 10:31:29;;;;;;;6.97;4.65;;;;;;;;;;5082273;28;20051;-82
2022/04/17 10:34:15;;;;;;;8.85;5.72;;;;;;;;;;5055564;28;20036;-83
2022/04/17 10:37:00;;;;;;;9.40;5.55;;;;;;;;;;5066736;28;20024;-81
2022/04/17 10:39:32;;;;;;;7.05;5.28;;;;;;;;;;5065016;28;20056;-84
2022/04/17 10:41:59;;;;;;;7.43;5.22;;;;;;;;;;5065071;28;20036;-82
2022/04/17 10:44:29;;;;;;;8.35;4.93;;;;;;;;;;5065760;28;20016;-83
2022/04/17 10:46:56;;;;;;;7.00;5.82;;;;;;;;;;5067570;28;20037;-81
2022/04/17 10:49:27;;;;;;;8.18;5.07;;;;;;;;;;5057663;28;20178;-81
2022/04/17 10:51:59;;;;;;;7.35;5.68;;;;;;;;;;5063979;28;20040;-82
2022/04/17 10:54:26;;;;;;;6.70;5.20;;;;;;;;;;5063270;28;20033;-81
2022/04/17 10:56:55;;;;;;;7.63;4.80;;;;;;;;;;5057975;28;20033;-80
2022/04/17 10:59:28;;;;;;;8.02;5.00;;;;;;;;;;5041175;28;20049;-82
2022/04/17 11:02:01;;;;;;;7.32;5.13;;;;;;;;;;5038018;28;20431;-82
2022/04/17 11:04:31;;;;;;;8.68;5.38;;;;;;;;;;5034647;28;20030;-82
2022/04/17 11:07:06;;;;;;;6.68;4.65;;;;;;;;;;5041369;28;20025;-82
2022/04/17 11:09:33;;;;;;;9.43;5.32;;;;;;;;;;5038106;28;20134;-81
2022/04/17 11:12:27;;;;;;;7.70;4.85;;;;;;;;;;5045794;28;20073;-81
2022/04/17 11:14:54;;;;;;;7.13;4.82;;;;;;;;;;5038377;28;20043;-82
2022/04/17 11:17:23;;;;;;;6.53;4.43;;;;;;;;;;5044032;28;20045;-82
2022/04/17 11:19:52;;;;;;;7.57;4.88;;;;;;;;;;5038069;28;20042;-83
2022/04/17 11:22:18;;;;;;;5.20;4.25;;;;;;;;;;5049631;28;20013;-84
2022/04/17 11:25:01;;;;;;;7.82;4.60;;;;;;;;;;5050133;28;20073;-82
2022/04/17 11:27:36;;;;;;;6.75;4.10;;;;;;;;;;5047407;28;20044;-83
2022/04/17 11:30:03;;;;;;;5.78;4.55;;;;;;;;;;5048091;28;20076;-82
2022/04/17 11:32:29;;;;;;;6.88;4.85;;;;;;;;;;5052288;28;20020;-83
2022/04/17 11:35:01;;;;;;;6.13;4.20;;;;;;;;;;5048211;28;20029;-82
2022/04/17 11:37:28;;;;;;;5.35;4.40;;;;;;;;;;5049390;28;20033;-81
2022/04/17 11:39:55;;;;;;;7.20;4.57;;;;;;;;;;5042418;28;20025;-81
2022/04/17 11:42:21;;;;;;;8.30;4.70;;;;;;;;;;5052049;28;20029;-82
2022/04/17 11:44:48;;;;;;;5.55;4.35;;;;;;;;;;5049178;28;20445;-81
2022/04/17 11:47:15;;;;;;;4.80;3.72;;;;;;;;;;5048715;28;20045;-84
2022/04/17 11:49:42;;;;;;;6.45;4.30;;;;;;;;;;5051344;28;20037;-81
2022/04/17 11:52:15;;;;;;;7.88;4.50;;;;;;;;;;5030286;28;20045;-82
2022/04/17 11:54:42;;;;;;;6.78;4.47;;;;;;;;;;5043835;28;20120;-84
2022/04/17 11:57:08;;;;;;;6.85;4.32;;;;;;;;;;5031054;28;20032;-83
2022/04/17 11:59:46;;;;;;;7.93;4.40;;;;;;;;;;5059941;28;20053;-82
2022/04/17 12:02:14;;;;;;;6.35;4.50;;;;;;;;;;5070973;28;20041;-84
2022/04/17 12:04:42;;;;;;;5.22;4.30;;;;;;;;;;5062369;28;20052;-83
2022/04/17 12:07:08;;;;;;;5.85;4.78;;;;;;;;;;5067175;28;20048;-82
2022/04/17 12:09:34;;;;;;;6.13;4.60;;;;;;;;;;5070241;28;20036;-82
2022/04/17 12:12:00;;;;;;;6.10;4.13;;;;;;;;;;5063391;28;20017;-83
2022/04/17 12:14:29;;;;;;;10.13;4.10;;;;;;;;;;5068458;28;20052;-85
2022/04/17 12:16:55;;;;;;;6.70;4.55;;;;;;;;;;5062882;28;20021;-84
2022/04/17 12:19:21;;;;;;;6.70;4.57;;;;;;;;;;5063996;28;20916;-83
2022/04/17 12:21:51;;;;;;;7.20;4.43;;;;;;;;;;5042090;28;20029;-84
2022/04/17 12:24:18;;;;;;;6.18;4.45;;;;;;;;;;5061242;28;20024;-84
2022/04/17 12:26:44;;;;;;;10.02;4.40;;;;;;;;;;5070921;28;20099;-85
2022/04/17 12:29:10;;;;;;;7.10;4.45;;;;;;;;;;5059945;28;20078;-82
2022/04/17 12:31:36;;;;;;;7.88;4.03;;;;;;;;;;5060997;28;20029;-85
2022/04/17 12:34:08;;;;;;;7.32;4.40;;;;;;;;;;5042315;28;20526;-83
2022/04/17 12:36:34;;;;;;;6.60;4.30;;;;;;;;;;5045502;28;20037;-83
2022/04/17 12:39:02;;;;;;;6.18;4.55;;;;;;;;;;5066138;28;20036;-81
2022/04/17 12:41:30;;;;;;;8.27;4.55;;;;;;;;;;5050790;28;20021;-82
2022/04/17 12:43:56;;;;;;;6.80;5.00;;;;;;;;;;5066197;28;20041;-84
2022/04/17 12:46:26;;;;;;;7.18;4.05;;;;;;;;;;5047008;28;20116;-83
2022/04/17 12:49:03;;;;;;;10.23;4.68;;;;;;;;;;5050475;28;20012;-82
2022/04/17 12:51:29;;;;;;;8.98;4.85;;;;;;;;;;5071380;28;20028;-83
2022/04/17 12:53:56;;;;;;;10.75;5.32;;;;;;;;;;5064727;28;20574;-84
2022/04/17 12:56:25;;;;;;;10.05;5.50;;;;;;;;;;5052040;28;20071;-85
2022/04/17 12:58:55;;;;;;;7.25;4.93;;;;;;;;;;5050107;28;20067;-84
2022/04/17 13:01:24;;;;;;;6.15;4.80;;;;;;;;;;5065104;28;20041;-79
2022/04/17 13:03:53;;;;;;;7.38;5.05;;;;;;;;;;5069466;28;20036;-85
2022/04/17 13:06:21;;;;;;;12.07;5.13;;;;;;;;;;5063322;28;20016;-83
2022/04/17 13:09:06;;;;;;;7.25;5.00;;;;;;;;;;5077063;28;20053;-85
2022/04/17 13:11:36;;;;;;;5.88;4.53;;;;;;;;;;5065966;28;20056;-83
2022/04/17 13:14:05;;;;;;;10.30;4.95;;;;;;;;;;5068911;28;20124;-84
2022/04/17 13:16:32;;;;;;;5.80;3.75;;;;;;;;;;5073338;28;20079;-85
2022/04/17 13:18:58;;;;;;;3.53;3.03;;;;;;;;;;5060588;28;20044;-84
2022/04/17 13:21:24;;;;;;;4.63;3.35;;;;;;;;;;5061873;28;20036;-83
2022/04/17 13:23:51;;;;;;;6.88;3.33;;;;;;;;;;5070966;28;20027;-83
2022/04/17 13:26:18;;;;;;;6.00;3.00;;;;;;;;;;5066514;28;20040;-84
2022/04/17 13:28:45;;;;;;;3.95;2.97;;;;;;;;;;5067754;28;20170;-84
2022/04/17 13:31:11;;;;;;;11.70;3.58;;;;;;;;;;5069508;28;20020;-84
2022/04/17 13:33:37;;;;;;;5.63;3.10;;;;;;;;;;5066448;28;20128;-77
2022/04/17 13:36:03;;;;;;;59.85;5.32;;;;;;;;;;5043631;28;20028;-77
2022/04/17 13:38:29;;;;;;;8.50;3.40;;;;;;;;;;5061751;28;20096;-77
2022/04/17 13:40:55;;;;;;;7.05;3.60;;;;;;;;;;5063871;28;20025;-77
2022/04/17 13:43:22;;;;;;;7.13;3.70;;;;;;;;;;5069539;28;20051;-78
2022/04/17 13:45:48;;;;;;;6.63;3.83;;;;;;;;;;5066123;28;20089;-78
2022/04/17 13:48:14;;;;;;;6.05;3.78;;;;;;;;;;5062844;28;20490;-76
2022/04/17 13:50:40;;;;;;;4.55;3.20;;;;;;;;;;5061138;28;20039;-77
2022/04/17 13:53:06;;;;;;;5.50;3.70;;;;;;;;;;5058829;28;20051;-77
2022/04/17 13:55:33;;;;;;;5.00;3.45;;;;;;;;;;5057031;28;20473;-75
2022/04/17 13:57:59;;;;;;;5.90;3.80;;;;;;;;;;5046273;28;20044;-76
2022/04/17 14:00:25;;;;;;;6.50;4.10;;;;;;;;;;5056893;28;20501;-76
2022/04/17 14:02:51;;;;;;;6.90;4.45;;;;;;;;;;5061027;28;20048;-77
2022/04/17 14:05:17;;;;;;;6.47;3.50;;;;;;;;;;5058471;28;20075;-77
2022/04/17 14:07:44;;;;;;;6.57;3.38;;;;;;;;;;5057452;28;20455;-78
2022/04/17 14:10:10;;;;;;;5.68;4.07;;;;;;;;;;5059900;28;20143;-75
2022/04/17 14:12:40;;;;;;;7.78;4.03;;;;;;;;;;5059147;28;20036;-76
2022/04/17 14:15:07;;;;;;;6.10;4.30;;;;;;;;;;5054547;28;20031;-76
2022/04/17 14:17:33;;;;;;;7.40;4.70;;;;;;;;;;5037428;28;20112;-74
2022/04/17 14:19:59;;;;;;;7.65;4.85;;;;;;;;;;5055419;28;20037;-76
2022/04/17 14:22:25;;;;;;;5.28;3.72;;;;;;;;;;5055610;28;20040;-76
2022/04/17 14:24:51;;;;;;;5.82;4.20;;;;;;;;;;5057344;28;20044;-77
2022/04/17 14:27:17;;;;;;;6.32;4.20;;;;;;;;;;5058248;28;20032;-76
2022/04/17 14:29:43;;;;;;;6.80;4.30;;;;;;;;;;5049067;28;20441;-77
2022/04/17 14:32:09;;;;;;;5.97;3.30;;;;;;;;;;5051952;28;20509;-76
2022/04/17 14:34:36;;;;;;;5.18;3.80;;;;;;;;;;5056013;28;20056;-77
2022/04/17 14:37:02;;;;;;;5.13;3.80;;;;;;;;;;5056381;28;20476;-76
2022/04/17 14:39:28;;;;;;;10.50;3.80;;;;;;;;;;5055090;28;20059;-75
2022/04/17 14:41:54;;;;;;;7.10;4.57;;;;;;;;;;5050318;28;20033;-76
2022/04/17 14:44:20;;;;;;;6.43;4.30;;;;;;;;;;5052659;28;20042;-76
2022/04/17 14:46:46;;;;;;;7.20;4.43;;;;;;;;;;5036590;28;20079;-77
2022/04/17 14:49:11;;;;;;;5.38;4.07;;;;;;;;;;5063742;28;20495;-77
2022/04/17 14:51:38;;;;;;;5.20;3.90;;;;;;;;;;5037542;28;20241;-77
2022/04/17 14:54:04;;;;;;;9.30;4.15;;;;;;;;;;5057982;28;20150;-78
2022/04/17 14:56:31;;;;;;;8.50;4.40;;;;;;;;;;5057928;28;20116;-77
2022/04/17 14:58:57;;;;;;;7.20;4.40;;;;;;;;;;5029277;28;20040;-75